sensor_id;sensor_type;location;lat;lon;timestamp;temperature;humidity
19999;DHT22;10160;50.926;4.374;2023-09-19T00:00:38;16.20;99.90
19999;DHT22;10160;50.926;4.374;2023-09-19T00:03:03;16.10;99.90
19999;DHT22;10160;50.926;4.374;2023-09-19T00:05:34;16.10;99.90
19999;DHT22;10160;50.926;4.374;2023-09-19T00:08:01;16.10;99.90
19999;DHT22;10160;50.926;4.374;2023-09-19T00:10:31;16.10;99.90
19999;DHT22;10160;50.926;4.374;2023-09-19T00:13:01;16.20;99.90
19999;DHT22;10160;50.926;4.374;2023-09-19T00:15:31;16.20;99.90
19999;DHT22;10160;50.926;4.374;2023-09-19T00:18:04;16.10;99.90
19999;DHT22;10160;50.926;4.374;2023-09-19T00:20:36;16.10;99.90
19999;DHT22;10160;50.926;4.374;2023-09-19T00:23:01;16.10;99.90
19999;DHT22;10160;50.926;4.374;2023-09-19T00:25:29;16.10;99.90
19999;DHT22;10160;50.926;4.374;2023-09-19T00:27:55;16.10;99.90
19999;DHT22;10160;50.926;4.374;2023-09-19T00:30:21;16.10;99.90
19999;DHT22;10160;50.926;4.374;2023-09-19T00:32:47;16.00;99.90
19999;DHT22;10160;50.926;4.374;2023-09-19T00:35:16;16.00;99.90
19999;DHT22;10160;50.926;4.374;2023-09-19T00:37:42;16.00;99.90
19999;DHT22;10160;50.926;4.374;2023-09-19T00:40:09;16.00;99.90
19999;DHT22;10160;50.926;4.374;2023-09-19T00:42:48;16.00;99.90
19999;DHT22;10160;50.926;4.374;2023-09-19T00:45:16;16.10;99.90
19999;DHT22;10160;50.926;4.374;2023-09-19T00:47:48;16.00;99.90
19999;DHT22;10160;50.926;4.374;2023-09-19T00:50:16;16.00;99.90
19999;DHT22;10160;50.926;4.374;2023-09-19T00:52:43;16.00;99.90
19999;DHT22;10160;50.926;4.374;2023-09-19T00:55:10;16.00;99.90
19999;DHT22;10160;50.926;4.374;2023-09-19T00:57:38;15.90;99.90
19999;DHT22;10160;50.926;4.374;2023-09-19T01:00:05;15.90;99.90
19999;DHT22;10160;50.926;4.374;2023-09-19T01:02:33;16.00;99.90
19999;DHT22;10160;50.926;4.374;2023-09-19T01:04:59;16.00;99.90
19999;DHT22;10160;50.926;4.374;2023-09-19T01:07:27;16.00;99.90
19999;DHT22;10160;50.926;4.374;2023-09-19T01:09:58;16.00;99.90
19999;DHT22;10160;50.926;4.374;2023-09-19T01:12:38;16.00;99.90
19999;DHT22;10160;50.926;4.374;2023-09-19T01:27:10;15.80;99.90
19999;DHT22;10160;50.926;4.374;2023-09-19T01:29:46;15.70;99.90
19999;DHT22;10160;50.926;4.374;2023-09-19T01:32:19;15.60;99.90
19999;DHT22;10160;50.926;4.374;2023-09-19T01:34:57;15.70;99.90
19999;DHT22;10160;50.926;4.374;2023-09-19T01:37:31;15.70;99.90
19999;DHT22;10160;50.926;4.374;2023-09-19T01:39:59;15.80;99.90
19999;DHT22;10160;50.926;4.374;2023-09-19T01:45:35;15.80;99.90
19999;DHT22;10160;50.926;4.374;2023-09-19T01:55:57;15.70;99.90
19999;DHT22;10160;50.926;4.374;2023-09-19T02:00:56;15.60;99.90
19999;DHT22;10160;50.926;4.374;2023-09-19T02:03:24;15.60;99.90
19999;DHT22;10160;50.926;4.374;2023-09-19T02:05:53;15.60;99.90
19999;DHT22;10160;50.926;4.374;2023-09-19T02:08:20;15.60;99.90
19999;DHT22;10160;50.926;4.374;2023-09-19T02:10:49;15.60;99.90
19999;DHT22;10160;50.926;4.374;2023-09-19T02:13:22;15.60;99.90
19999;DHT22;10160;50.926;4.374;2023-09-19T02:15:53;15.80;99.90
19999;DHT22;10160;50.926;4.374;2023-09-19T02:18:18;15.80;99.90
19999;DHT22;10160;50.926;4.374;2023-09-19T02:20:44;15.80;99.90
19999;DHT22;10160;50.926;4.374;2023-09-19T02:23:11;15.70;99.90
19999;DHT22;10160;50.926;4.374;2023-09-19T02:25:41;15.70;99.90
19999;DHT22;10160;50.926;4.374;2023-09-19T02:28:08;15.60;99.90
19999;DHT22;10160;50.926;4.374;2023-09-19T02:30:34;15.70;99.90
19999;DHT22;10160;50.926;4.374;2023-09-19T02:33:01;15.70;99.90
19999;DHT22;10160;50.926;4.374;2023-09-19T02:35:28;15.80;99.90
19999;DHT22;10160;50.926;4.374;2023-09-19T02:37:53;15.80;99.90
19999;DHT22;10160;50.926;4.374;2023-09-19T02:40:19;15.80;99.90
19999;DHT22;10160;50.926;4.374;2023-09-19T02:42:46;15.60;99.90
19999;DHT22;10160;50.926;4.374;2023-09-19T02:45:16;15.70;99.90
19999;DHT22;10160;50.926;4.374;2023-09-19T02:47:43;15.60;99.90
19999;DHT22;10160;50.926;4.374;2023-09-19T02:50:09;15.50;99.90
19999;DHT22;10160;50.926;4.374;2023-09-19T02:52:41;15.50;99.90
19999;DHT22;10160;50.926;4.374;2023-09-19T02:55:09;15.50;99.90
19999;DHT22;10160;50.926;4.374;2023-09-19T02:57:36;15.60;99.90
19999;DHT22;10160;50.926;4.374;2023-09-19T03:00:09;15.60;99.90
19999;DHT22;10160;50.926;4.374;2023-09-19T03:02:37;15.60;99.90
19999;DHT22;10160;50.926;4.374;2023-09-19T03:05:05;15.60;99.90
19999;DHT22;10160;50.926;4.374;2023-09-19T03:07:31;15.50;99.90
19999;DHT22;10160;50.926;4.374;2023-09-19T03:09:57;15.50;99.90
19999;DHT22;10160;50.926;4.374;2023-09-19T03:12:22;15.30;99.90
19999;DHT22;10160;50.926;4.374;2023-09-19T03:14:48;15.40;99.90
19999;DHT22;10160;50.926;4.374;2023-09-19T03:17:15;15.30;99.90
19999;DHT22;10160;50.926;4.374;2023-09-19T03:19:41;15.40;99.90
19999;DHT22;10160;50.926;4.374;2023-09-19T03:22:07;15.40;99.90
19999;DHT22;10160;50.926;4.374;2023-09-19T03:24:33;15.50;99.90
19999;DHT22;10160;50.926;4.374;2023-09-19T03:27:01;15.40;99.90
19999;DHT22;10160;50.926;4.374;2023-09-19T03:29:26;15.40;99.90
19999;DHT22;10160;50.926;4.374;2023-09-19T03:31:52;15.50;99.90
19999;DHT22;10160;50.926;4.374;2023-09-19T03:34:20;15.40;99.90
19999;DHT22;10160;50.926;4.374;2023-09-19T03:36:46;15.40;99.90
19999;DHT22;10160;50.926;4.374;2023-09-19T03:39:11;15.30;99.90
19999;DHT22;10160;50.926;4.374;2023-09-19T03:41:37;15.30;99.90
19999;DHT22;10160;50.926;4.374;2023-09-19T03:44:03;15.30;99.90
19999;DHT22;10160;50.926;4.374;2023-09-19T03:46:28;15.30;99.90
19999;DHT22;10160;50.926;4.374;2023-09-19T03:48:55;15.30;99.90
19999;DHT22;10160;50.926;4.374;2023-09-19T03:51:21;15.30;99.90
19999;DHT22;10160;50.926;4.374;2023-09-19T03:53:47;15.30;99.90
19999;DHT22;10160;50.926;4.374;2023-09-19T03:56:14;15.30;99.90
19999;DHT22;10160;50.926;4.374;2023-09-19T03:58:40;15.30;99.90
19999;DHT22;10160;50.926;4.374;2023-09-19T04:01:06;15.30;99.90
19999;DHT22;10160;50.926;4.374;2023-09-19T04:03:35;15.20;99.90
19999;DHT22;10160;50.926;4.374;2023-09-19T04:06:14;15.20;99.90
19999;DHT22;10160;50.926;4.374;2023-09-19T04:08:40;15.20;99.90
19999;DHT22;10160;50.926;4.374;2023-09-19T04:11:06;15.20;99.90
19999;DHT22;10160;50.926;4.374;2023-09-19T04:13:31;15.20;99.90
19999;DHT22;10160;50.926;4.374;2023-09-19T04:15:57;15.10;99.90
19999;DHT22;10160;50.926;4.374;2023-09-19T04:18:23;15.20;99.90
19999;DHT22;10160;50.926;4.374;2023-09-19T04:20:50;15.20;99.90
19999;DHT22;10160;50.926;4.374;2023-09-19T04:23:16;15.10;99.90
19999;DHT22;10160;50.926;4.374;2023-09-19T04:25:42;15.10;99.90
19999;DHT22;10160;50.926;4.374;2023-09-19T04:28:08;15.10;99.90
19999;DHT22;10160;50.926;4.374;2023-09-19T04:30:39;15.10;99.90
19999;DHT22;10160;50.926;4.374;2023-09-19T04:33:08;15.00;99.90
19999;DHT22;10160;50.926;4.374;2023-09-19T04:35:34;15.00;99.90
19999;DHT22;10160;50.926;4.374;2023-09-19T04:38:01;15.00;99.90
19999;DHT22;10160;50.926;4.374;2023-09-19T04:40:28;15.00;99.90
19999;DHT22;10160;50.926;4.374;2023-09-19T04:42:55;15.00;99.90
19999;DHT22;10160;50.926;4.374;2023-09-19T04:45:22;14.90;99.90
19999;DHT22;10160;50.926;4.374;2023-09-19T04:47:48;14.90;99.90
19999;DHT22;10160;50.926;4.374;2023-09-19T04:50:14;14.80;99.90
19999;DHT22;10160;50.926;4.374;2023-09-19T04:52:41;14.90;99.90
19999;DHT22;10160;50.926;4.374;2023-09-19T04:55:14;14.90;99.90
19999;DHT22;10160;50.926;4.374;2023-09-19T04:57:52;15.00;99.90
19999;DHT22;10160;50.926;4.374;2023-09-19T05:00:20;14.90;99.90
19999;DHT22;10160;50.926;4.374;2023-09-19T05:02:49;14.90;99.90
19999;DHT22;10160;50.926;4.374;2023-09-19T05:05:16;15.00;99.90
19999;DHT22;10160;50.926;4.374;2023-09-19T05:07:42;15.00;99.90
19999;DHT22;10160;50.926;4.374;2023-09-19T05:10:09;14.90;99.90
19999;DHT22;10160;50.926;4.374;2023-09-19T05:12:35;14.90;99.90
19999;DHT22;10160;50.926;4.374;2023-09-19T05:15:08;14.80;99.90
19999;DHT22;10160;50.926;4.374;2023-09-19T05:17:34;14.80;99.90
19999;DHT22;10160;50.926;4.374;2023-09-19T05:20:01;14.90;99.90
19999;DHT22;10160;50.926;4.374;2023-09-19T05:22:31;14.90;99.90
19999;DHT22;10160;50.926;4.374;2023-09-19T05:24:58;15.00;99.90
19999;DHT22;10160;50.926;4.374;2023-09-19T05:27:24;14.90;99.90
19999;DHT22;10160;50.926;4.374;2023-09-19T05:29:49;14.90;99.90
19999;DHT22;10160;50.926;4.374;2023-09-19T05:32:18;15.00;99.90
19999;DHT22;10160;50.926;4.374;2023-09-19T05:34:45;15.00;99.90
19999;DHT22;10160;50.926;4.374;2023-09-19T05:37:12;14.80;99.90
19999;DHT22;10160;50.926;4.374;2023-09-19T05:39:39;14.80;99.90
19999;DHT22;10160;50.926;4.374;2023-09-19T05:42:04;14.80;99.90
19999;DHT22;10160;50.926;4.374;2023-09-19T05:44:30;14.90;99.90
19999;DHT22;10160;50.926;4.374;2023-09-19T05:46:56;14.90;99.90
19999;DHT22;10160;50.926;4.374;2023-09-19T05:49:22;14.90;99.90
19999;DHT22;10160;50.926;4.374;2023-09-19T05:51:49;14.90;99.90
19999;DHT22;10160;50.926;4.374;2023-09-19T05:54:16;14.90;99.90
19999;DHT22;10160;50.926;4.374;2023-09-19T05:56:43;14.80;99.90
19999;DHT22;10160;50.926;4.374;2023-09-19T05:59:12;14.70;99.90
19999;DHT22;10160;50.926;4.374;2023-09-19T06:01:39;14.80;99.90
19999;DHT22;10160;50.926;4.374;2023-09-19T06:04:05;14.90;99.90
19999;DHT22;10160;50.926;4.374;2023-09-19T06:06:30;14.90;99.90
19999;DHT22;10160;50.926;4.374;2023-09-19T06:08:56;15.00;99.90
19999;DHT22;10160;50.926;4.374;2023-09-19T06:11:23;15.00;99.90
19999;DHT22;10160;50.926;4.374;2023-09-19T06:13:51;15.00;99.90
19999;DHT22;10160;50.926;4.374;2023-09-19T06:16:18;15.10;99.90
19999;DHT22;10160;50.926;4.374;2023-09-19T06:18:45;15.00;99.90
19999;DHT22;10160;50.926;4.374;2023-09-19T06:21:10;15.00;99.90
19999;DHT22;10160;50.926;4.374;2023-09-19T06:23:36;15.10;99.90
19999;DHT22;10160;50.926;4.374;2023-09-19T06:26:02;15.20;99.90
19999;DHT22;10160;50.926;4.374;2023-09-19T06:28:32;15.30;99.90
19999;DHT22;10160;50.926;4.374;2023-09-19T06:30:58;15.30;99.90
19999;DHT22;10160;50.926;4.374;2023-09-19T06:33:24;15.30;99.90
19999;DHT22;10160;50.926;4.374;2023-09-19T06:35:50;15.30;99.90
19999;DHT22;10160;50.926;4.374;2023-09-19T06:38:18;15.30;99.90
19999;DHT22;10160;50.926;4.374;2023-09-19T06:40:44;15.30;99.90
19999;DHT22;10160;50.926;4.374;2023-09-19T06:43:11;15.40;99.90
19999;DHT22;10160;50.926;4.374;2023-09-19T06:45:37;15.30;99.90
19999;DHT22;10160;50.926;4.374;2023-09-19T06:48:02;15.30;99.90
19999;DHT22;10160;50.926;4.374;2023-09-19T06:50:28;15.40;99.90
19999;DHT22;10160;50.926;4.374;2023-09-19T06:52:56;15.40;99.90
19999;DHT22;10160;50.926;4.374;2023-09-19T06:55:25;15.50;99.90
19999;DHT22;10160;50.926;4.374;2023-09-19T06:57:52;15.50;99.90
19999;DHT22;10160;50.926;4.374;2023-09-19T07:00:19;15.40;99.90
19999;DHT22;10160;50.926;4.374;2023-09-19T07:03:04;15.40;99.90
19999;DHT22;10160;50.926;4.374;2023-09-19T07:05:34;15.60;99.90
19999;DHT22;10160;50.926;4.374;2023-09-19T07:08:03;15.50;99.90
19999;DHT22;10160;50.926;4.374;2023-09-19T07:10:35;15.40;99.90
19999;DHT22;10160;50.926;4.374;2023-09-19T07:13:02;15.50;99.90
19999;DHT22;10160;50.926;4.374;2023-09-19T07:15:29;15.60;99.90
19999;DHT22;10160;50.926;4.374;2023-09-19T07:17:56;15.70;99.90
19999;DHT22;10160;50.926;4.374;2023-09-19T07:20:23;15.70;99.90
19999;DHT22;10160;50.926;4.374;2023-09-19T07:22:52;15.70;99.90
19999;DHT22;10160;50.926;4.374;2023-09-19T07:25:18;15.90;99.90
19999;DHT22;10160;50.926;4.374;2023-09-19T07:27:44;15.90;99.90
19999;DHT22;10160;50.926;4.374;2023-09-19T07:30:11;15.80;99.90
19999;DHT22;10160;50.926;4.374;2023-09-19T07:32:37;15.90;99.90
19999;DHT22;10160;50.926;4.374;2023-09-19T07:35:05;15.80;99.90
19999;DHT22;10160;50.926;4.374;2023-09-19T07:37:34;15.90;99.90
19999;DHT22;10160;50.926;4.374;2023-09-19T07:40:03;16.00;99.90
19999;DHT22;10160;50.926;4.374;2023-09-19T07:42:37;15.90;99.90
19999;DHT22;10160;50.926;4.374;2023-09-19T07:45:06;16.00;99.90
19999;DHT22;10160;50.926;4.374;2023-09-19T07:47:35;16.00;99.90
19999;DHT22;10160;50.926;4.374;2023-09-19T07:50:01;16.00;99.90
19999;DHT22;10160;50.926;4.374;2023-09-19T07:52:28;16.00;99.90
19999;DHT22;10160;50.926;4.374;2023-09-19T07:54:54;16.00;99.90
19999;DHT22;10160;50.926;4.374;2023-09-19T07:57:22;15.90;99.90
19999;DHT22;10160;50.926;4.374;2023-09-19T07:59:48;16.00;99.90
19999;DHT22;10160;50.926;4.374;2023-09-19T08:02:13;16.10;99.90
19999;DHT22;10160;50.926;4.374;2023-09-19T08:04:44;16.10;99.90
19999;DHT22;10160;50.926;4.374;2023-09-19T08:07:12;16.10;99.90
19999;DHT22;10160;50.926;4.374;2023-09-19T08:09:38;16.20;99.90
19999;DHT22;10160;50.926;4.374;2023-09-19T08:12:06;16.30;99.90
19999;DHT22;10160;50.926;4.374;2023-09-19T08:14:33;16.30;99.90
19999;DHT22;10160;50.926;4.374;2023-09-19T08:16:59;16.40;99.90
19999;DHT22;10160;50.926;4.374;2023-09-19T08:19:26;16.40;99.90
19999;DHT22;10160;50.926;4.374;2023-09-19T08:21:57;16.40;99.90
19999;DHT22;10160;50.926;4.374;2023-09-19T08:24:29;16.40;99.90
19999;DHT22;10160;50.926;4.374;2023-09-19T08:26:55;16.50;99.90
19999;DHT22;10160;50.926;4.374;2023-09-19T08:29:25;16.60;99.90
19999;DHT22;10160;50.926;4.374;2023-09-19T08:31:59;16.70;99.90
19999;DHT22;10160;50.926;4.374;2023-09-19T08:34:25;16.70;99.90
19999;DHT22;10160;50.926;4.374;2023-09-19T08:36:51;16.90;99.90
19999;DHT22;10160;50.926;4.374;2023-09-19T08:39:18;16.90;99.90
19999;DHT22;10160;50.926;4.374;2023-09-19T08:41:44;16.90;99.90
19999;DHT22;10160;50.926;4.374;2023-09-19T08:44:10;17.00;99.90
19999;DHT22;10160;50.926;4.374;2023-09-19T08:46:40;17.10;99.90
19999;DHT22;10160;50.926;4.374;2023-09-19T08:52:09;17.20;99.90
19999;DHT22;10160;50.926;4.374;2023-09-19T08:54:38;17.30;99.90
19999;DHT22;10160;50.926;4.374;2023-09-19T08:57:07;17.50;99.90
19999;DHT22;10160;50.926;4.374;2023-09-19T08:59:38;17.50;99.90
19999;DHT22;10160;50.926;4.374;2023-09-19T09:02:12;17.40;99.90
19999;DHT22;10160;50.926;4.374;2023-09-19T09:04:41;17.40;99.90
19999;DHT22;10160;50.926;4.374;2023-09-19T09:07:12;17.60;99.90
19999;DHT22;10160;50.926;4.374;2023-09-19T09:09:41;17.80;99.90
19999;DHT22;10160;50.926;4.374;2023-09-19T09:12:12;18.00;99.90
19999;DHT22;10160;50.926;4.374;2023-09-19T09:14:47;17.90;99.90
19999;DHT22;10160;50.926;4.374;2023-09-19T09:17:16;18.00;99.90
19999;DHT22;10160;50.926;4.374;2023-09-19T09:19:46;18.10;99.90
19999;DHT22;10160;50.926;4.374;2023-09-19T09:22:12;17.90;99.90
19999;DHT22;10160;50.926;4.374;2023-09-19T09:24:51;17.90;99.90
19999;DHT22;10160;50.926;4.374;2023-09-19T09:27:19;17.90;99.90
19999;DHT22;10160;50.926;4.374;2023-09-19T09:29:45;18.00;99.90
19999;DHT22;10160;50.926;4.374;2023-09-19T09:32:25;18.00;99.90
19999;DHT22;10160;50.926;4.374;2023-09-19T09:35:02;18.00;99.90
19999;DHT22;10160;50.926;4.374;2023-09-19T09:37:29;18.00;99.90
19999;DHT22;10160;50.926;4.374;2023-09-19T09:39:57;18.00;99.90
19999;DHT22;10160;50.926;4.374;2023-09-19T09:42:34;18.20;99.90
19999;DHT22;10160;50.926;4.374;2023-09-19T09:45:20;18.30;99.90
19999;DHT22;10160;50.926;4.374;2023-09-19T09:47:58;18.10;99.90
19999;DHT22;10160;50.926;4.374;2023-09-19T09:50:47;18.20;99.90
19999;DHT22;10160;50.926;4.374;2023-09-19T09:53:26;18.10;99.90
19999;DHT22;10160;50.926;4.374;2023-09-19T09:56:04;18.20;99.90
19999;DHT22;10160;50.926;4.374;2023-09-19T09:58:40;18.10;99.90
19999;DHT22;10160;50.926;4.374;2023-09-19T10:01:14;18.10;99.90
19999;DHT22;10160;50.926;4.374;2023-09-19T10:03:42;18.30;99.90
19999;DHT22;10160;50.926;4.374;2023-09-19T10:06:15;18.30;99.90
19999;DHT22;10160;50.926;4.374;2023-09-19T10:09:03;18.60;99.90
19999;DHT22;10160;50.926;4.374;2023-09-19T10:11:31;18.80;99.90
19999;DHT22;10160;50.926;4.374;2023-09-19T10:13:58;19.00;99.90
19999;DHT22;10160;50.926;4.374;2023-09-19T10:16:30;19.60;99.90
19999;DHT22;10160;50.926;4.374;2023-09-19T10:18:58;19.90;99.90
19999;DHT22;10160;50.926;4.374;2023-09-19T10:21:28;20.20;99.90
19999;DHT22;10160;50.926;4.374;2023-09-19T10:23:58;20.60;99.90
19999;DHT22;10160;50.926;4.374;2023-09-19T10:26:26;21.10;99.90
19999;DHT22;10160;50.926;4.374;2023-09-19T10:28:59;21.20;99.90
19999;DHT22;10160;50.926;4.374;2023-09-19T10:31:29;21.50;99.90
19999;DHT22;10160;50.926;4.374;2023-09-19T10:34:02;21.80;99.90
19999;DHT22;10160;50.926;4.374;2023-09-19T10:36:32;22.00;99.90
19999;DHT22;10160;50.926;4.374;2023-09-19T10:39:02;22.20;99.90
19999;DHT22;10160;50.926;4.374;2023-09-19T10:41:32;22.40;99.90
19999;DHT22;10160;50.926;4.374;2023-09-19T10:44:03;22.00;99.90
19999;DHT22;10160;50.926;4.374;2023-09-19T10:46:35;22.10;99.90
19999;DHT22;10160;50.926;4.374;2023-09-19T10:49:05;21.90;99.90
19999;DHT22;10160;50.926;4.374;2023-09-19T10:51:39;21.70;99.90
19999;DHT22;10160;50.926;4.374;2023-09-19T10:54:11;21.40;99.90
19999;DHT22;10160;50.926;4.374;2023-09-19T10:56:43;21.60;99.90
19999;DHT22;10160;50.926;4.374;2023-09-19T10:59:15;21.60;99.90
19999;DHT22;10160;50.926;4.374;2023-09-19T11:01:55;21.90;99.90
19999;DHT22;10160;50.926;4.374;2023-09-19T11:07:10;21.90;99.90
19999;DHT22;10160;50.926;4.374;2023-09-19T11:09:51;22.10;99.90
19999;DHT22;10160;50.926;4.374;2023-09-19T11:14:58;22.60;99.90
19999;DHT22;10160;50.926;4.374;2023-09-19T11:30:39;22.30;99.90
19999;DHT22;10160;50.926;4.374;2023-09-19T11:33:20;21.90;99.90
19999;DHT22;10160;50.926;4.374;2023-09-19T11:36:02;21.70;99.90
19999;DHT22;10160;50.926;4.374;2023-09-19T11:46:33;21.20;99.90
19999;DHT22;10160;50.926;4.374;2023-09-19T11:49:06;21.00;99.90
19999;DHT22;10160;50.926;4.374;2023-09-19T11:51:48;20.40;99.90
19999;DHT22;10160;50.926;4.374;2023-09-19T11:54:16;20.30;99.90
19999;DHT22;10160;50.926;4.374;2023-09-19T11:56:51;20.30;99.90
19999;DHT22;10160;50.926;4.374;2023-09-19T11:59:33;20.20;99.90
19999;DHT22;10160;50.926;4.374;2023-09-19T12:02:06;20.10;99.90
19999;DHT22;10160;50.926;4.374;2023-09-19T12:04:38;20.10;99.90
19999;DHT22;10160;50.926;4.374;2023-09-19T12:07:09;20.10;99.90
19999;DHT22;10160;50.926;4.374;2023-09-19T12:10:03;20.20;99.90
19999;DHT22;10160;50.926;4.374;2023-09-19T12:12:30;20.20;99.90
19999;DHT22;10160;50.926;4.374;2023-09-19T12:14:59;20.30;99.90
19999;DHT22;10160;50.926;4.374;2023-09-19T12:17:38;20.30;99.90
19999;DHT22;10160;50.926;4.374;2023-09-19T12:20:05;20.20;99.90
19999;DHT22;10160;50.926;4.374;2023-09-19T12:22:45;20.10;99.90
19999;DHT22;10160;50.926;4.374;2023-09-19T12:25:12;20.30;99.90
19999;DHT22;10160;50.926;4.374;2023-09-19T12:27:45;20.70;99.90
19999;DHT22;10160;50.926;4.374;2023-09-19T12:30:29;21.00;99.90
19999;DHT22;10160;50.926;4.374;2023-09-19T12:32:58;20.70;99.90
19999;DHT22;10160;50.926;4.374;2023-09-19T12:35:28;20.60;99.90
19999;DHT22;10160;50.926;4.374;2023-09-19T12:37:58;20.40;99.90
19999;DHT22;10160;50.926;4.374;2023-09-19T12:40:24;20.20;99.90
19999;DHT22;10160;50.926;4.374;2023-09-19T12:42:56;20.30;99.90
19999;DHT22;10160;50.926;4.374;2023-09-19T12:45:24;20.20;99.90
19999;DHT22;10160;50.926;4.374;2023-09-19T12:48:24;20.10;99.90
19999;DHT22;10160;50.926;4.374;2023-09-19T12:51:07;20.20;99.90
19999;DHT22;10160;50.926;4.374;2023-09-19T12:53:45;20.40;99.90
19999;DHT22;10160;50.926;4.374;2023-09-19T12:56:21;20.30;99.90
19999;DHT22;10160;50.926;4.374;2023-09-19T12:58:56;20.30;99.90
19999;DHT22;10160;50.926;4.374;2023-09-19T13:01:23;20.30;99.90
19999;DHT22;10160;50.926;4.374;2023-09-19T13:04:12;20.50;99.90
19999;DHT22;10160;50.926;4.374;2023-09-19T13:06:38;20.60;99.90
19999;DHT22;10160;50.926;4.374;2023-09-19T13:09:12;20.50;99.90
19999;DHT22;10160;50.926;4.374;2023-09-19T13:11:44;20.60;99.90
19999;DHT22;10160;50.926;4.374;2023-09-19T13:14:23;20.50;99.90
19999;DHT22;10160;50.926;4.374;2023-09-19T13:17:05;20.30;99.90
19999;DHT22;10160;50.926;4.374;2023-09-19T13:19:48;20.10;99.90
19999;DHT22;10160;50.926;4.374;2023-09-19T13:22:43;20.10;99.90
19999;DHT22;10160;50.926;4.374;2023-09-19T13:25:16;20.20;99.90
19999;DHT22;10160;50.926;4.374;2023-09-19T13:27:47;20.30;99.90
19999;DHT22;10160;50.926;4.374;2023-09-19T13:30:21;20.50;99.90
19999;DHT22;10160;50.926;4.374;2023-09-19T13:32:47;20.60;99.90
19999;DHT22;10160;50.926;4.374;2023-09-19T13:35:14;20.70;99.90
19999;DHT22;10160;50.926;4.374;2023-09-19T13:37:41;20.70;99.90
19999;DHT22;10160;50.926;4.374;2023-09-19T13:40:14;20.70;99.90
19999;DHT22;10160;50.926;4.374;2023-09-19T13:42:41;20.80;99.90
19999;DHT22;10160;50.926;4.374;2023-09-19T13:45:07;20.40;99.90
19999;DHT22;10160;50.926;4.374;2023-09-19T13:47:34;20.40;99.90
19999;DHT22;10160;50.926;4.374;2023-09-19T13:50:03;20.50;99.90
19999;DHT22;10160;50.926;4.374;2023-09-19T13:52:30;20.50;99.90
19999;DHT22;10160;50.926;4.374;2023-09-19T13:54:57;20.50;99.90
19999;DHT22;10160;50.926;4.374;2023-09-19T13:57:26;20.40;99.90
19999;DHT22;10160;50.926;4.374;2023-09-19T13:59:53;20.40;99.90
19999;DHT22;10160;50.926;4.374;2023-09-19T14:02:22;20.40;99.90
19999;DHT22;10160;50.926;4.374;2023-09-19T14:04:54;20.30;99.90
19999;DHT22;10160;50.926;4.374;2023-09-19T14:07:21;20.30;99.90
19999;DHT22;10160;50.926;4.374;2023-09-19T14:09:46;20.30;99.90
19999;DHT22;10160;50.926;4.374;2023-09-19T14:12:13;20.20;99.90
19999;DHT22;10160;50.926;4.374;2023-09-19T14:14:39;20.10;99.90
19999;DHT22;10160;50.926;4.374;2023-09-19T14:17:05;20.10;99.90
19999;DHT22;10160;50.926;4.374;2023-09-19T14:19:32;20.20;99.90
19999;DHT22;10160;50.926;4.374;2023-09-19T14:21:58;20.30;99.90
19999;DHT22;10160;50.926;4.374;2023-09-19T14:24:25;20.50;99.90
19999;DHT22;10160;50.926;4.374;2023-09-19T14:26:51;20.60;99.90
19999;DHT22;10160;50.926;4.374;2023-09-19T14:29:16;20.70;99.90
19999;DHT22;10160;50.926;4.374;2023-09-19T14:31:42;20.70;99.90
19999;DHT22;10160;50.926;4.374;2023-09-19T14:34:09;20.80;99.90
19999;DHT22;10160;50.926;4.374;2023-09-19T14:36:38;20.60;99.90
19999;DHT22;10160;50.926;4.374;2023-09-19T14:39:04;20.50;99.90
19999;DHT22;10160;50.926;4.374;2023-09-19T14:41:30;20.60;99.90
19999;DHT22;10160;50.926;4.374;2023-09-19T14:43:57;20.70;99.90
19999;DHT22;10160;50.926;4.374;2023-09-19T14:46:23;20.60;99.90
19999;DHT22;10160;50.926;4.374;2023-09-19T14:48:51;20.50;99.90
19999;DHT22;10160;50.926;4.374;2023-09-19T14:51:17;20.40;99.90
19999;DHT22;10160;50.926;4.374;2023-09-19T14:53:45;20.30;99.90
19999;DHT22;10160;50.926;4.374;2023-09-19T14:56:11;20.10;99.90
19999;DHT22;10160;50.926;4.374;2023-09-19T14:58:38;20.00;99.90
19999;DHT22;10160;50.926;4.374;2023-09-19T15:01:12;20.00;99.90
19999;DHT22;10160;50.926;4.374;2023-09-19T15:03:39;20.00;99.90
19999;DHT22;10160;50.926;4.374;2023-09-19T15:06:10;19.90;99.90
19999;DHT22;10160;50.926;4.374;2023-09-19T15:08:45;19.90;99.90
19999;DHT22;10160;50.926;4.374;2023-09-19T15:11:13;19.80;99.90
19999;DHT22;10160;50.926;4.374;2023-09-19T15:13:42;19.70;99.90
19999;DHT22;10160;50.926;4.374;2023-09-19T15:16:08;19.80;99.90
19999;DHT22;10160;50.926;4.374;2023-09-19T15:18:38;19.90;99.90
19999;DHT22;10160;50.926;4.374;2023-09-19T15:21:05;19.90;99.90
19999;DHT22;10160;50.926;4.374;2023-09-19T15:23:31;19.90;99.90
19999;DHT22;10160;50.926;4.374;2023-09-19T15:26:09;19.90;99.90
19999;DHT22;10160;50.926;4.374;2023-09-19T15:28:35;19.90;99.90
19999;DHT22;10160;50.926;4.374;2023-09-19T15:31:20;19.80;99.90
19999;DHT22;10160;50.926;4.374;2023-09-19T15:33:46;19.80;99.90
19999;DHT22;10160;50.926;4.374;2023-09-19T15:36:13;19.80;99.90
19999;DHT22;10160;50.926;4.374;2023-09-19T15:39:01;19.70;99.90
19999;DHT22;10160;50.926;4.374;2023-09-19T15:41:30;19.70;99.90
19999;DHT22;10160;50.926;4.374;2023-09-19T15:43:57;19.60;99.90
19999;DHT22;10160;50.926;4.374;2023-09-19T15:46:24;19.60;99.90
19999;DHT22;10160;50.926;4.374;2023-09-19T15:48:55;19.60;99.90
19999;DHT22;10160;50.926;4.374;2023-09-19T15:51:25;19.70;99.90
19999;DHT22;10160;50.926;4.374;2023-09-19T15:53:53;19.80;99.90
19999;DHT22;10160;50.926;4.374;2023-09-19T15:56:20;19.70;99.90
19999;DHT22;10160;50.926;4.374;2023-09-19T15:58:47;19.60;99.90
19999;DHT22;10160;50.926;4.374;2023-09-19T16:01:14;19.60;99.90
19999;DHT22;10160;50.926;4.374;2023-09-19T16:03:45;19.50;99.90
19999;DHT22;10160;50.926;4.374;2023-09-19T16:06:13;19.60;99.90
19999;DHT22;10160;50.926;4.374;2023-09-19T16:08:43;19.60;99.90
19999;DHT22;10160;50.926;4.374;2023-09-19T16:11:10;19.60;99.90
19999;DHT22;10160;50.926;4.374;2023-09-19T16:13:37;19.60;99.90
19999;DHT22;10160;50.926;4.374;2023-09-19T16:16:09;19.60;99.90
19999;DHT22;10160;50.926;4.374;2023-09-19T16:18:40;19.60;99.90
19999;DHT22;10160;50.926;4.374;2023-09-19T16:21:06;19.70;99.90
19999;DHT22;10160;50.926;4.374;2023-09-19T16:23:33;19.60;99.90
19999;DHT22;10160;50.926;4.374;2023-09-19T16:26:06;19.60;99.90
19999;DHT22;10160;50.926;4.374;2023-09-19T16:28:33;19.60;99.90
19999;DHT22;10160;50.926;4.374;2023-09-19T16:31:00;19.50;99.90
19999;DHT22;10160;50.926;4.374;2023-09-19T16:33:28;19.50;99.90
19999;DHT22;10160;50.926;4.374;2023-09-19T16:35:54;19.60;99.90
19999;DHT22;10160;50.926;4.374;2023-09-19T16:38:20;19.50;99.90